Time;durP1;ratioP1;P1;durP2;ratioP2;P2;SDS_P1;SDS_P2;PMS_P1;PMS_P2;Temp;Humidity;BMP_temperature;BMP_pressure;BME280_temperature;BME280_humidity;BME280_pressure;Samples;Min_cycle;Max_cycle;Signal;HPM_P1;HPM_P2
2021/05/11 00:01:55;;;;;;;2.88;1.70;;;;;;;14.54;63.58;100211.09;5077914;28;20108;-51
2021/05/11 00:04:21;;;;;;;2.95;1.90;;;;;;;14.62;64.93;100211.75;5062926;28;20508;-50
2021/05/11 00:06:46;;;;;;;3.55;1.77;;;;;;;14.51;66.85;100216.44;5075051;28;20028;-51
2021/05/11 00:09:12;;;;;;;3.08;1.65;;;;;;;14.51;67.84;100224.34;5047544;28;20039;-50
2021/05/11 00:11:38;;;;;;;4.28;2.17;;;;;;;14.61;67.97;100224.94;5077515;28;20091;-50
2021/05/11 00:14:06;;;;;;;3.45;2.05;;;;;;;14.55;67.74;100233.88;5077349;28;20434;-52
2021/05/11 00:16:33;;;;;;;3.83;2.10;;;;;;;14.52;68.74;100223.41;5076222;28;20032;-50
2021/05/11 00:19:02;;;;;;;3.10;1.75;;;;;;;14.37;68.97;100226.47;5077688;28;20399;-50
2021/05/11 00:21:28;;;;;;;2.72;1.90;;;;;;;14.52;65.74;100226.03;5078778;28;20468;-50
2021/05/11 00:23:54;;;;;;;4.47;2.30;;;;;;;14.60;68.51;100221.41;5076540;28;20031;-53
2021/05/11 00:26:20;;;;;;;3.30;2.20;;;;;;;14.24;72.03;100218.91;5062921;28;20039;-51
2021/05/11 00:28:49;;;;;;;3.95;2.58;;;;;;;14.10;70.54;100219.28;5071083;28;20508;-52
2021/05/11 00:31:15;;;;;;;3.28;2.05;;;;;;;14.35;69.14;100218.63;5057515;28;20654;-53
2021/05/11 00:33:40;;;;;;;4.28;2.47;;;;;;;14.24;73.45;100211.03;5055727;28;20368;-54
2021/05/11 00:36:06;;;;;;;4.75;2.80;;;;;;;14.26;74.59;100211.84;5064829;28;20071;-50
2021/05/11 00:38:31;;;;;;;4.60;2.78;;;;;;;14.50;73.42;100206.81;5073930;28;20035;-52
2021/05/11 00:40:57;;;;;;;3.55;2.45;;;;;;;14.34;74.33;100205.53;5080312;28;20048;-51
2021/05/11 00:43:23;;;;;;;4.07;2.70;;;;;;;14.43;73.80;100205.28;5076137;28;20039;-53
2021/05/11 00:45:49;;;;;;;4.40;2.80;;;;;;;14.47;69.13;100206.91;5076570;28;20514;-50
2021/05/11 00:48:14;;;;;;;4.43;2.80;;;;;;;14.56;72.52;100204.00;5044547;28;20093;-52
2021/05/11 00:50:40;;;;;;;4.50;3.22;;;;;;;14.24;75.46;100203.13;5075562;28;20419;-50
2021/05/11 00:53:06;;;;;;;4.35;2.85;;;;;;;14.25;72.99;100204.88;5079879;28;20094;-52
2021/05/11 00:55:32;;;;;;;4.15;2.58;;;;;;;14.25;69.83;100198.75;5055871;28;20032;-50
2021/05/11 00:57:58;;;;;;;4.60;2.65;;;;;;;14.53;69.38;100208.50;5061370;28;20055;-53
2021/05/11 01:00:24;;;;;;;4.25;2.90;;;;;;;14.39;73.97;100211.53;5080481;28;20334;-52
2021/05/11 01:02:51;;;;;;;4.10;2.83;;;;;;;14.20;74.94;100201.50;5078073;28;20040;-51
2021/05/11 01:05:17;;;;;;;4.60;2.85;;;;;;;14.02;75.55;100197.59;5064804;28;20048;-51
2021/05/11 01:07:46;;;;;;;5.60;3.10;;;;;;;14.28;71.49;100196.03;5043198;28;20040;-51
2021/05/11 01:10:11;;;;;;;;;;;;;;;14.06;76.53;100201.00;5065537;28;20028;-54
2021/05/11 01:12:37;;;;;;;4.00;2.90;;;;;;;14.00;74.08;100201.16;5076777;28;19920;-51
2021/05/11 01:15:03;;;;;;;4.38;3.08;;;;;;;14.07;76.48;100200.13;5061162;28;20039;-51
2021/05/11 01:17:33;;;;;;;5.13;3.60;;;;;;;14.00;76.28;100201.16;5064618;28;20041;-53
2021/05/11 01:20:02;;;;;;;4.85;2.88;;;;;;;13.96;75.18;100200.41;5068648;28;20075;-53
2021/05/11 01:25:01;;;;;;;5.75;3.22;;;;;;;14.06;74.93;100201.00;5063493;28;20037;-53
2021/05/11 01:44:37;;;;;;;4.65;3.30;;;;;;;13.66;77.40;100197.63;5079267;28;20091;-52
2021/05/11 01:49:12;;;;;;;4.38;3.13;;;;;;;13.92;74.19;100196.97;5077995;28;20035;-54
2021/05/11 01:57:40;;;;;;;5.32;3.58;;;;;;;14.13;73.95;100195.53;5046672;28;20071;-53
2021/05/11 02:23:26;;;;;;;4.93;3.40;;;;;;;13.74;76.92;100195.69;5079389;27;19975;-51
2021/05/11 02:25:51;;;;;;;4.13;3.17;;;;;;;14.04;72.86;100189.66;5069643;28;20054;-52
2021/05/11 02:28:17;;;;;;;4.75;3.25;;;;;;;14.19;75.68;100186.66;5060052;28;20049;-51
2021/05/11 02:30:43;;;;;;;5.32;3.83;;;;;;;13.77;79.61;100185.09;5061494;28;20508;-52
2021/05/11 02:33:08;;;;;;;4.60;3.53;;;;;;;13.55;79.41;100189.16;5060388;28;20059;-51
2021/05/11 02:35:34;;;;;;;6.20;3.80;;;;;;;13.26;79.45;100188.94;5075767;28;20043;-53
2021/05/11 02:38:01;;;;;;;5.13;3.88;;;;;;;13.44;79.66;100192.03;5071537;28;20120;-52
2021/05/11 02:40:27;;;;;;;5.70;4.45;;;;;;;13.27;82.42;100195.06;5072462;28;20126;-53
2021/05/11 02:43:15;;;;;;;6.82;4.55;;;;;;;13.13;82.90;100192.75;5060334;28;20034;-52
2021/05/11 02:45:38;;;;;;;5.80;4.53;;;;;;;13.08;83.11;100189.34;5064825;28;20499;-55
2021/05/11 02:48:05;;;;;;;6.25;4.70;;;;;;;12.91;84.52;100181.88;5065377;28;20039;-52
2021/05/11 02:50:31;;;;;;;8.07;4.38;;;;;;;12.86;83.91;100181.97;5061268;28;20270;-53
2021/05/11 02:52:57;;;;;;;6.35;4.40;;;;;;;12.91;83.49;100192.34;5063634;28;20042;-54
2021/05/11 02:55:24;;;;;;;5.35;4.20;;;;;;;13.01;83.19;100193.88;5068980;28;20360;-52
2021/05/11 02:57:52;;;;;;;6.43;4.72;;;;;;;12.99;84.49;100194.78;5075602;28;20031;-53
2021/05/11 03:00:19;;;;;;;6.25;4.20;;;;;;;13.01;83.02;100195.63;5064947;28;20033;-54
2021/05/11 03:02:45;;;;;;;6.10;3.97;;;;;;;13.06;82.74;100192.00;5061607;28;20534;-55
2021/05/11 03:05:11;;;;;;;4.93;3.92;;;;;;;13.24;81.56;100180.22;5078310;28;20415;-52
2021/05/11 03:07:37;;;;;;;5.80;4.80;;;;;;;13.08;84.06;100178.84;5077762;28;20051;-51
2021/05/11 03:10:08;;;;;;;5.55;4.35;;;;;;;13.05;84.01;100184.19;5080010;28;20131;-52
2021/05/11 03:12:34;;;;;;;6.43;4.47;;;;;;;12.95;84.51;100173.03;5051239;28;20028;-51
2021/05/11 03:15:00;;;;;;;5.90;4.50;;;;;;;12.99;83.92;100176.44;5082165;27;20028;-55
2021/05/11 03:17:27;;;;;;;6.57;5.03;;;;;;;12.95;84.36;100179.13;5069405;28;20529;-53
2021/05/11 03:19:53;;;;;;;5.88;3.60;;;;;;;13.18;80.41;100179.50;5071945;28;20045;-51
2021/05/11 03:22:18;;;;;;;6.68;4.60;;;;;;;13.44;78.72;100171.94;5079882;28;20035;-52
2021/05/11 03:24:44;;;;;;;6.63;4.75;;;;;;;13.19;83.25;100160.25;5077130;28;20024;-53
2021/05/11 03:27:16;;;;;;;5.57;4.28;;;;;;;13.20;80.45;100157.56;5079979;28;20027;-52
2021/05/11 03:29:42;;;;;;;5.60;4.28;;;;;;;13.73;76.21;100165.06;5078051;27;20035;-52
2021/05/11 03:32:08;;;;;;;5.68;4.35;;;;;;;13.86;76.88;100168.25;5075795;28;20054;-53
2021/05/11 03:34:35;;;;;;;7.15;5.10;;;;;;;13.59;80.74;100169.81;5076622;28;20043;-51
2021/05/11 03:37:01;;;;;;;6.68;5.40;;;;;;;13.30;82.55;100176.59;5079975;27;20059;-51
2021/05/11 03:39:27;;;;;;;5.97;4.53;;;;;;;13.19;81.12;100171.59;5062247;28;21297;-52
2021/05/11 03:42:00;;;;;;;6.65;5.07;;;;;;;13.16;83.38;100173.44;5089744;28;20051;-52
2021/05/11 03:44:29;;;;;;;7.13;5.00;;;;;;;13.15;82.13;100182.22;5077427;28;20035;-55
2021/05/11 03:46:55;;;;;;;7.15;5.53;;;;;;;13.11;82.58;100184.03;5076712;28;20399;-53
2021/05/11 03:49:20;;;;;;;7.43;5.60;;;;;;;12.95;85.24;100179.13;5062757;28;20042;-51
2021/05/11 03:51:46;;;;;;;7.07;6.03;;;;;;;12.91;85.97;100176.63;5064593;28;20054;-51
2021/05/11 03:54:12;;;;;;;7.53;5.55;;;;;;;12.86;85.16;100184.59;5058578;28;20576;-51
2021/05/11 03:56:38;;;;;;;7.68;6.00;;;;;;;12.85;85.48;100195.97;5074041;28;20047;-52
2021/05/11 03:59:04;;;;;;;7.20;6.25;;;;;;;12.78;86.38;100191.78;5063116;28;20047;-54
2021/05/11 04:01:32;;;;;;;8.68;6.07;;;;;;;12.76;86.44;100183.91;5065867;28;20085;-50
2021/05/11 04:03:58;;;;;;;7.95;6.07;;;;;;;12.74;86.92;100179.63;5061112;28;20046;-52
2021/05/11 04:06:25;;;;;;;8.23;6.55;;;;;;;12.68;87.59;100178.00;5081491;28;20036;-53
2021/05/11 04:09:11;;;;;;;9.20;6.28;;;;;;;12.69;87.18;100170.97;5078319;28;20058;-56
2021/05/11 04:16:39;;;;;;;8.90;6.75;;;;;;;12.88;84.69;100172.31;5070702;28;20306;-54
2021/05/11 04:19:05;;;;;;;8.73;6.32;;;;;;;12.79;86.14;100177.75;5059897;28;20043;-54
2021/05/11 04:21:31;;;;;;;8.88;6.97;;;;;;;12.73;87.80;100177.88;5080252;28;20047;-52
2021/05/11 04:23:56;;;;;;;10.18;7.85;;;;;;;12.74;87.81;100174.38;5075920;28;20093;-52
2021/05/11 04:26:23;;;;;;;11.15;8.48;;;;;;;12.71;87.89;100164.81;5060499;28;20107;-52
2021/05/11 04:28:50;;;;;;;9.98;7.15;;;;;;;12.77;85.47;100171.69;5060238;28;20805;-53
2021/05/11 04:31:17;;;;;;;10.27;7.43;;;;;;;12.77;87.36;100169.91;5064769;28;20044;-55
2021/05/11 04:33:43;;;;;;;11.80;8.30;;;;;;;12.71;86.60;100171.78;5077018;28;20036;-53
2021/05/11 04:36:09;;;;;;;10.80;7.68;;;;;;;12.81;85.24;100175.97;5061744;28;20512;-51
2021/05/11 04:38:37;;;;;;;12.23;8.77;;;;;;;12.84;86.71;100180.28;5068836;28;20540;-56
2021/05/11 04:41:03;;;;;;;11.00;8.10;;;;;;;12.88;84.55;100182.78;5080841;28;20032;-50
2021/05/11 04:43:30;;;;;;;9.38;7.15;;;;;;;13.08;81.35;100181.47;5075084;28;20210;-56
2021/05/11 04:48:39;;;;;;;9.85;7.85;;;;;;;13.15;84.43;100179.59;5075666;28;20559;-57
2021/05/11 04:51:06;;;;;;;10.82;8.75;;;;;;;13.24;84.37;100172.34;5078944;28;20036;-52
2021/05/11 04:53:31;;;;;;;10.00;7.93;;;;;;;13.25;82.50;100165.34;5052274;28;20041;-54
2021/05/11 04:55:57;;;;;;;9.65;6.18;;;;;;;12.99;84.11;100169.44;5055075;28;20457;-54
2021/05/11 04:58:23;;;;;;;9.88;5.57;;;;;;;13.17;81.58;100159.44;5060019;28;20139;-52
2021/05/11 05:00:50;;;;;;;8.80;5.53;;;;;;;13.22;81.63;100161.03;5079159;27;20089;-56
2021/05/11 05:03:24;;;;;;;6.47;3.75;;;;;;;13.03;81.82;100164.97;5079333;28;20138;-52
2021/05/11 05:05:52;;;;;;;7.35;3.22;;;;;;;13.32;79.13;100160.81;5074698;28;20063;-52
2021/05/11 05:08:18;;;;;;;6.30;3.13;;;;;;;13.53;77.89;100155.06;5059615;28;20043;-52
2021/05/11 05:10:45;;;;;;;5.68;2.72;;;;;;;13.62;76.86;100153.97;5081936;28;20442;-54
2021/05/11 05:13:22;;;;;;;5.68;3.03;;;;;;;13.53;76.81;100157.69;5059959;28;20038;-53
2021/05/11 05:15:56;;;;;;;7.70;3.30;;;;;;;13.33;80.76;100163.38;5069977;28;20499;-53
2021/05/11 05:18:22;;;;;;;5.95;3.70;;;;;;;12.89;83.09;100160.91;5084977;27;20468;-55
2021/05/11 05:20:51;;;;;;;7.88;3.47;;;;;;;12.55;84.96;100159.00;5081484;28;20529;-52
2021/05/11 05:23:19;;;;;;;9.07;3.25;;;;;;;12.35;85.57;100162.06;5078587;28;20050;-54
2021/05/11 05:26:03;;;;;;;8.20;4.30;;;;;;;12.21;85.85;100149.22;5042826;28;20089;-51
2021/05/11 05:28:29;;;;;;;6.68;3.60;;;;;;;12.63;82.20;100142.25;5071551;28;20039;-54
2021/05/11 05:30:55;;;;;;;8.70;3.75;;;;;;;12.45;84.64;100141.75;5070773;28;20032;-51
2021/05/11 05:33:35;;;;;;;7.10;3.70;;;;;;;12.64;84.25;100141.34;5068631;28;20244;-52
2021/05/11 05:36:00;;;;;;;8.20;3.55;;;;;;;12.55;85.18;100142.44;5070086;28;20139;-51
2021/05/11 05:38:28;;;;;;;7.20;3.50;;;;;;;12.53;85.20;100138.97;5085044;28;20045;-51
2021/05/11 05:41:01;;;;;;;7.07;3.80;;;;;;;12.32;86.24;100137.66;5087239;27;20124;-53
2021/05/11 05:43:26;;;;;;;7.28;3.72;;;;;;;12.25;87.25;100129.06;5089157;28;20032;-53
2021/05/11 05:45:53;;;;;;;7.22;3.67;;;;;;;12.30;87.24;100116.72;5068542;28;20047;-52
2021/05/11 05:48:20;;;;;;;7.07;3.72;;;;;;;12.25;86.41;100115.94;5084718;27;20039;-53
2021/05/11 05:50:48;;;;;;;8.02;3.67;;;;;;;12.21;87.55;100123.03;5090089;28;20075;-52
2021/05/11 05:53:21;;;;;;;10.52;4.15;;;;;;;12.15;87.98;100103.94;5087546;28;20764;-56
2021/05/11 05:55:47;;;;;;;8.02;4.13;;;;;;;12.12;88.15;100104.84;5090845;28;20048;-56
2021/05/11 05:58:12;;;;;;;11.05;3.97;;;;;;;12.20;87.47;100105.56;5089933;28;20070;-51
2021/05/11 06:00:38;;;;;;;6.90;4.35;;;;;;;12.34;86.75;100112.28;5085921;28;20122;-54
2021/05/11 06:03:05;;;;;;;11.95;4.00;;;;;;;12.29;87.97;100107.13;5079112;28;20066;-51
2021/05/11 06:05:32;;;;;;;6.72;3.63;;;;;;;12.38;87.51;100119.19;5069739;28;20040;-55
2021/05/11 06:07:58;;;;;;;8.32;3.70;;;;;;;12.36;85.24;100120.97;5081570;28;20065;-53
2021/05/11 06:10:29;;;;;;;7.25;4.00;;;;;;;12.35;86.06;100124.47;5087242;27;20036;-55
2021/05/11 06:13:05;;;;;;;8.70;5.22;;;;;;;12.47;86.22;100134.72;5086123;28;20224;-56
2021/05/11 06:18:19;;;;;;;7.70;4.28;;;;;;;12.51;85.74;100159.97;5090423;28;20552;-51
2021/05/11 06:20:44;;;;;;;7.57;3.75;;;;;;;12.83;83.40;100155.78;5054863;28;20043;-56
2021/05/11 06:23:10;;;;;;;6.15;3.75;;;;;;;12.63;84.21;100161.50;5081992;28;20686;-54
2021/05/11 06:25:42;;;;;;;7.60;4.10;;;;;;;12.76;84.45;100168.16;5072672;28;20044;-56
2021/05/11 06:28:08;;;;;;;9.68;4.55;;;;;;;12.78;85.28;100178.66;5088543;27;20040;-53
2021/05/11 06:30:33;;;;;;;6.70;3.92;;;;;;;12.68;85.03;100184.97;5073220;28;20032;-52
2021/05/11 06:32:59;;;;;;;8.07;4.45;;;;;;;12.55;86.47;100179.13;5067141;28;20499;-55
2021/05/11 06:35:26;;;;;;;6.32;2.90;;;;;;;12.82;81.00;100184.69;5084386;28;20048;-51
2021/05/11 06:37:56;;;;;;;8.65;4.15;;;;;;;12.70;85.13;100184.06;5086023;27;20055;-51
2021/05/11 06:40:26;;;;;;;10.02;4.47;;;;;;;12.51;86.94;100182.72;5082813;27;20062;-52
2021/05/11 06:42:53;;;;;;;7.63;3.97;;;;;;;12.34;86.19;100170.81;5084423;28;20131;-54
2021/05/11 06:46:03;;;;;;;5.60;3.42;;;;;;;12.77;81.85;100164.66;5089110;28;20024;-50
2021/05/11 06:53:34;;;;;;;9.10;4.70;;;;;;;12.59;86.91;100150.19;5087063;28;20047;-52
2021/05/11 06:56:00;;;;;;;6.80;4.03;;;;;;;12.52;86.80;100143.34;5084247;28;20040;-52
2021/05/11 06:58:26;;;;;;;10.13;4.32;;;;;;;12.50;86.81;100147.78;5085267;28;20125;-53
2021/05/11 07:00:52;;;;;;;10.27;5.28;;;;;;;12.60;87.07;100149.31;5084304;28;20119;-55
2021/05/11 07:03:19;;;;;;;8.05;4.45;;;;;;;12.48;87.39;100152.19;5088635;28;20043;-51
2021/05/11 07:05:47;;;;;;;7.40;4.75;;;;;;;12.32;87.81;100149.00;5070598;28;20119;-54
2021/05/11 07:08:19;;;;;;;7.47;4.80;;;;;;;12.33;88.45;100150.72;5077523;27;20096;-52
2021/05/11 07:10:51;;;;;;;7.28;4.18;;;;;;;12.30;88.17;100139.47;5082141;28;20051;-55
2021/05/11 07:13:17;;;;;;;10.23;5.10;;;;;;;12.30;88.69;100136.84;5062372;27;20043;-56
2021/05/11 07:15:45;;;;;;;9.13;4.93;;;;;;;12.33;88.77;100139.38;5060969;28;20051;-55
2021/05/11 07:18:14;;;;;;;6.85;4.88;;;;;;;12.39;87.22;100142.75;5083963;28;20063;-55
2021/05/11 07:20:43;;;;;;;8.55;5.07;;;;;;;12.45;88.72;100144.38;5064290;28;20116;-53
2021/05/11 07:23:10;;;;;;;7.18;5.00;;;;;;;12.51;87.55;100140.78;5079148;27;20044;-55
2021/05/11 07:25:54;;;;;;;8.50;4.75;;;;;;;12.49;88.03;100125.06;5077318;28;20085;-54
2021/05/11 07:30:58;;;;;;;6.90;4.53;;;;;;;12.58;86.93;100110.88;5072692;28;20566;-52
2021/05/11 07:33:27;;;;;;;8.93;5.20;;;;;;;12.80;87.54;100106.03;5063102;28;20153;-53
2021/05/11 07:35:52;;;;;;;6.35;4.57;;;;;;;13.00;85.16;100102.06;5063071;28;20043;-51
2021/05/11 07:38:18;;;;;;;8.10;4.68;;;;;;;13.00;84.36;100091.59;5078077;27;20055;-56
2021/05/11 07:40:44;;;;;;;9.02;5.05;;;;;;;12.88;85.93;100098.00;5056919;28;20040;-54
2021/05/11 07:43:11;;;;;;;10.23;5.50;;;;;;;12.74;87.26;100096.53;5049242;28;20071;-51
2021/05/11 08:05:13;;;;;;;13.88;8.50;;;;;;;13.15;87.84;100085.97;5061529;28;20539;-56
2021/05/11 08:16:03;;;;;;;12.55;8.60;;;;;;;13.27;86.88;100080.41;5082858;28;20093;-53
2021/05/11 08:29:40;;;;;;;12.75;9.93;;;;;;;13.45;87.29;100099.25;5087051;27;20039;-56
2021/05/11 08:32:06;;;;;;;14.50;9.98;;;;;;;13.38;87.84;100095.06;5095485;27;20494;-54
2021/05/11 08:34:32;;;;;;;19.80;11.18;;;;;;;13.28;87.94;100110.16;5092678;27;20055;-55
2021/05/11 08:36:57;;;;;;;17.38;11.55;;;;;;;13.25;88.54;100105.84;5080953;28;20100;-57
2021/05/11 08:39:24;;;;;;;15.80;10.80;;;;;;;13.21;88.38;100109.44;5085152;28;20048;-54
2021/05/11 08:41:50;;;;;;;12.77;9.50;;;;;;;13.30;84.78;100105.72;5096987;27;20035;-55
2021/05/11 08:44:16;;;;;;;18.52;12.35;;;;;;;13.39;87.76;100115.19;5099428;27;20570;-53
2021/05/11 08:46:44;;;;;;;17.10;13.05;;;;;;;13.39;89.40;100109.94;5097993;27;20515;-55
2021/05/11 08:49:14;;;;;;;13.55;10.88;;;;;;;13.47;88.39;100107.09;5081966;28;20487;-55
2021/05/11 08:55:03;;;;;;;13.82;10.60;;;;;;;13.52;85.54;100116.56;5064237;28;20055;-54
2021/05/11 09:08:40;;;;;;;14.90;11.23;;;;;;;13.75;85.55;100067.84;5108848;27;20073;-54
2021/05/11 09:25:27;;;;;;;16.00;11.43;;;;;;;14.22;85.79;100044.59;5085106;28;20050;-54
2021/05/11 09:28:06;;;;;;;14.77;9.48;;;;;;;14.20;84.22;100043.75;5079345;28;20520;-56
2021/05/11 09:33:44;;;;;;;17.17;10.02;;;;;;;14.11;86.78;100052.78;5088103;28;21223;-55
2021/05/11 10:46:40;;;;;;;13.35;8.55;;;;;;;14.08;84.89;100054.63;5069048;27;20040;-53
2021/05/11 10:48:28;;;;;;;11.43;8.57;;;;;;;14.24;81.80;100047.19;5074026;28;20443;-51
2021/05/11 10:50:54;;;;;;;16.33;11.07;;;;;;;14.23;80.82;100033.19;5104194;27;20057;-56
2021/05/11 10:54:08;;;;;;;14.10;9.07;;;;;;;14.19;82.48;100026.28;5107410;27;20137;-53
2021/05/11 10:56:36;;;;;;;12.80;7.70;;;;;;;14.42;82.06;100027.34;5084155;27;20097;-54
2021/05/11 10:59:10;;;;;;;12.40;7.65;;;;;;;14.25;82.91;100033.13;5099875;27;20055;-55
2021/05/11 11:01:36;;;;;;;11.93;8.13;;;;;;;14.32;82.33;100032.03;5101641;27;20040;-53
2021/05/11 11:04:12;;;;;;;10.80;8.15;;;;;;;14.44;81.02;100030.78;5065077;27;20898;-56
2021/05/11 11:06:56;;;;;;;14.15;9.30;;;;;;;14.36;84.24;100045.94;5095244;27;20035;-56
2021/05/11 11:09:23;;;;;;;11.02;8.35;;;;;;;14.15;81.30;100058.84;5090757;27;20046;-52
2021/05/11 11:11:50;;;;;;;11.07;7.55;;;;;;;14.05;80.66;100065.25;5085012;27;20044;-51
2021/05/11 11:14:16;;;;;;;11.38;8.52;;;;;;;14.02;81.43;100062.72;5083678;28;20047;-57
2021/05/11 11:16:42;;;;;;;10.15;8.25;;;;;;;13.94;82.63;100058.53;5097253;27;20051;-53
2021/05/11 11:19:08;;;;;;;11.93;7.53;;;;;;;13.92;82.76;100057.72;5102024;27;20067;-53
2021/05/11 11:24:26;;;;;;;11.50;8.40;;;;;;;14.11;82.11;100068.56;5089343;27;20116;-52
2021/05/11 11:26:53;;;;;;;8.77;7.03;;;;;;;14.01;81.16;100060.97;5090726;28;20051;-56
2021/05/11 11:29:22;;;;;;;12.32;7.82;;;;;;;14.08;80.14;100054.63;5085166;28;20050;-52
2021/05/11 11:31:48;;;;;;;10.85;7.68;;;;;;;14.10;81.66;100050.22;5094693;27;20035;-53
2021/05/11 11:34:23;;;;;;;11.30;7.70;;;;;;;14.19;81.58;100039.44;5106054;27;20050;-53
2021/05/11 11:37:01;;;;;;;11.77;9.60;;;;;;;14.24;81.10;100041.91;5086372;27;20158;-52
2021/05/11 11:39:44;;;;;;;13.25;8.73;;;;;;;14.24;80.66;100036.66;5088833;27;20334;-53
2021/05/11 11:42:26;;;;;;;14.10;9.68;;;;;;;14.31;81.97;100038.19;5103155;27;20873;-53
2021/05/11 11:45:00;;;;;;;13.55;9.27;;;;;;;14.58;79.64;100051.38;5089134;28;20044;-57
2021/05/11 11:47:29;;;;;;;9.77;7.90;;;;;;;14.69;78.04;100053.72;5088939;28;20075;-53
2021/05/11 11:49:58;;;;;;;13.32;9.10;;;;;;;14.64;79.03;100060.00;5099303;27;20035;-52
2021/05/11 11:52:30;;;;;;;11.25;8.18;;;;;;;14.75;78.66;100082.50;5083579;27;20051;-51
2021/05/11 12:00:13;;;;;;;10.98;8.73;;;;;;;14.33;81.21;100082.84;5104909;27;20546;-52
2021/05/11 12:02:59;;;;;;;11.13;7.80;;;;;;;14.30;79.47;100081.16;5103790;27;20036;-51
2021/05/11 12:05:33;;;;;;;10.70;7.50;;;;;;;14.27;81.52;100084.75;5103467;27;20309;-53
2021/05/11 12:10:35;;;;;;;10.63;8.07;;;;;;;14.34;79.84;100079.31;5087586;28;20040;-51
2021/05/11 12:13:06;;;;;;;10.43;7.68;;;;;;;14.24;80.31;100079.56;5086924;28;20543;-52
2021/05/11 12:15:32;;;;;;;10.30;7.22;;;;;;;14.14;80.70;100076.34;5089452;28;20054;-52
2021/05/11 12:17:58;;;;;;;12.27;8.52;;;;;;;14.18;80.47;100081.50;5109518;27;20035;-52
2021/05/11 12:20:27;;;;;;;10.23;7.82;;;;;;;14.21;81.70;100076.19;5106729;27;20262;-51
2021/05/11 12:23:22;;;;;;;9.52;7.53;;;;;;;14.36;79.80;100067.84;5096715;27;20393;-51
2021/05/11 12:25:57;;;;;;;11.07;7.72;;;;;;;14.70;78.11;100072.09;5079250;27;20066;-51
2021/05/11 12:28:37;;;;;;;10.88;7.10;;;;;;;14.70;78.19;100071.25;5104534;27;20513;-52
2021/05/11 12:31:04;;;;;;;10.55;7.85;;;;;;;14.53;79.15;100061.22;5090916;27;20045;-52
2021/05/11 12:33:38;;;;;;;11.80;8.60;;;;;;;14.75;79.86;100056.19;5107081;27;20039;-54
2021/05/11 12:36:16;;;;;;;11.55;7.93;;;;;;;14.74;78.29;100072.88;5083687;27;20658;-53
2021/05/11 12:38:42;;;;;;;12.02;8.10;;;;;;;14.66;80.23;100066.97;5087795;28;20040;-53
2021/05/11 12:41:11;;;;;;;12.35;9.00;;;;;;;14.66;81.42;100070.47;5104126;27;20031;-54
2021/05/11 12:43:52;;;;;;;11.15;8.77;;;;;;;14.79;81.26;100078.84;5098289;28;20109;-53
2021/05/11 12:46:27;;;;;;;14.25;9.80;;;;;;;14.59;82.35;100080.31;5090815;28;20051;-55
2021/05/11 12:48:59;;;;;;;11.10;8.57;;;;;;;14.72;82.75;100085.22;5101729;28;20153;-52
2021/05/11 12:51:43;;;;;;;12.38;9.65;;;;;;;14.55;82.27;100083.06;5086100;28;20255;-55
2021/05/11 12:54:21;;;;;;;12.02;9.20;;;;;;;14.39;83.76;100080.03;5089406;27;20861;-52
2021/05/11 12:57:01;;;;;;;12.80;8.77;;;;;;;14.40;82.81;100077.38;5093297;28;20281;-55
2021/05/11 12:59:52;;;;;;;11.45;8.40;;;;;;;14.34;81.98;100058.28;5106472;27;20713;-52
2021/05/11 13:35:08;;;;;;;17.20;11.77;;;;;;;14.11;86.98;100097.47;5087514;27;20415;-52
2021/05/11 13:37:33;;;;;;;16.33;12.35;;;;;;;14.02;88.04;100100.34;5103442;27;20055;-55
2021/05/11 13:40:00;;;;;;;19.17;13.30;;;;;;;13.92;88.25;100091.88;5106697;27;20039;-55
2021/05/11 13:42:27;;;;;;;20.15;14.13;;;;;;;13.99;87.64;100094.34;5097416;27;20565;-55
2021/05/11 13:44:56;;;;;;;18.33;12.63;;;;;;;14.40;84.43;100102.78;5091009;27;20104;-55
2021/05/11 13:47:23;;;;;;;17.77;13.55;;;;;;;14.14;85.30;100093.91;5089780;27;20086;-52
2021/05/11 13:49:52;;;;;;;18.77;12.57;;;;;;;14.09;86.42;100101.03;5072018;28;20040;-51
2021/05/11 13:52:18;;;;;;;16.95;12.40;;;;;;;14.34;84.60;100095.94;5088318;27;20035;-52
2021/05/11 13:54:45;;;;;;;16.60;13.68;;;;;;;14.27;86.09;100087.41;5090234;28;20120;-55
2021/05/11 14:02:40;;;;;;;17.52;13.95;;;;;;;14.18;84.82;100100.78;5100969;27;20487;-54
2021/05/11 14:05:07;;;;;;;19.98;15.73;;;;;;;13.96;87.15;100090.88;5109164;27;20134;-51
2021/05/11 14:07:33;;;;;;;15.93;13.25;;;;;;;14.04;83.26;100087.16;5106935;27;20039;-53
2021/05/11 14:09:59;;;;;;;17.95;13.70;;;;;;;14.10;85.68;100087.00;5107273;27;20039;-56
2021/05/11 14:12:24;;;;;;;19.33;14.18;;;;;;;14.36;85.57;100083.63;5111008;27;20039;-52
2021/05/11 14:14:50;;;;;;;17.63;13.05;;;;;;;14.21;84.49;100078.81;5109879;27;20592;-56
2021/05/11 14:17:16;;;;;;;18.55;14.20;;;;;;;14.15;84.51;100074.59;5105423;27;20052;-54
2021/05/11 14:19:42;;;;;;;18.35;15.23;;;;;;;14.15;86.24;100071.97;5099345;27;20035;-54
2021/05/11 14:22:08;;;;;;;19.88;14.07;;;;;;;14.25;83.70;100065.53;5094484;27;20044;-57
2021/05/11 14:24:33;;;;;;;16.08;11.65;;;;;;;14.72;79.91;100065.03;5109370;27;20112;-55
2021/05/11 14:26:59;;;;;;;16.35;11.77;;;;;;;14.49;82.55;100055.19;5109479;27;20047;-55
2021/05/11 14:29:24;;;;;;;16.35;13.00;;;;;;;14.37;84.86;100060.81;5092940;27;20096;-54
2021/05/11 14:31:50;;;;;;;15.77;12.23;;;;;;;14.17;84.18;100057.00;5089203;28;20047;-54
2021/05/11 14:34:17;;;;;;;15.05;11.57;;;;;;;14.18;84.42;100048.22;5085461;28;20130;-52
2021/05/11 14:36:43;;;;;;;13.80;11.40;;;;;;;14.22;82.81;100030.56;5071928;28;20432;-56
2021/05/11 14:39:09;;;;;;;15.05;11.05;;;;;;;14.13;83.50;100029.09;5071354;28;20051;-53
2021/05/11 14:41:35;;;;;;;16.33;10.25;;;;;;;14.14;83.22;100036.94;5103410;27;20670;-54
2021/05/11 14:44:01;;;;;;;14.57;11.15;;;;;;;14.17;81.97;100043.88;5107582;27;20046;-56
2021/05/11 14:46:27;;;;;;;13.77;10.63;;;;;;;13.94;83.17;100045.41;5099671;27;20308;-53
2021/05/11 14:48:53;;;;;;;13.10;9.98;;;;;;;14.00;82.41;100051.38;5097558;27;20054;-56
2021/05/11 14:51:19;;;;;;;12.90;10.15;;;;;;;13.81;83.38;100051.06;5087597;28;20467;-54
2021/05/11 14:53:47;;;;;;;12.02;10.05;;;;;;;13.90;82.80;100058.66;5072924;28;20244;-56
2021/05/11 14:56:12;;;;;;;14.07;11.15;;;;;;;13.81;83.11;100070.28;5090245;27;20078;-54
2021/05/11 14:58:38;;;;;;;14.93;11.23;;;;;;;13.90;83.95;100072.66;5085599;28;20574;-53
2021/05/11 15:01:04;;;;;;;15.60;11.77;;;;;;;13.88;83.24;100074.47;5091354;27;20053;-54
2021/05/11 15:03:30;;;;;;;15.52;12.15;;;;;;;13.70;84.76;100088.13;5093193;27;20065;-52
2021/05/11 15:05:56;;;;;;;14.07;10.77;;;;;;;13.75;83.47;100089.72;5105918;27;20052;-53
2021/05/11 15:08:21;;;;;;;12.25;10.43;;;;;;;13.81;83.69;100086.06;5108366;27;20382;-53
2021/05/11 15:10:49;;;;;;;14.70;11.82;;;;;;;13.53;85.50;100078.06;5097931;27;20462;-55
2021/05/11 15:13:15;;;;;;;15.43;11.85;;;;;;;13.74;84.45;100081.88;5093059;28;20412;-52
2021/05/11 15:15:45;;;;;;;17.38;12.73;;;;;;;13.55;84.96;100090.22;5088284;27;20291;-52
2021/05/11 15:18:10;;;;;;;16.15;12.70;;;;;;;13.36;87.41;100087.25;5107247;27;20122;-52
2021/05/11 15:20:36;;;;;;;14.88;10.20;;;;;;;13.41;85.12;100093.22;5091577;27;20036;-51
2021/05/11 15:23:03;;;;;;;15.50;11.05;;;;;;;13.45;85.95;100097.47;5095196;27;20059;-51
2021/05/11 15:25:31;;;;;;;16.05;10.68;;;;;;;13.26;86.78;100094.44;5076334;27;20261;-54
2021/05/11 15:27:57;;;;;;;13.77;10.23;;;;;;;13.24;86.78;100093.63;5104173;27;20051;-55
2021/05/11 15:30:25;;;;;;;12.48;9.10;;;;;;;13.21;86.84;100106.81;5086678;28;20035;-56
2021/05/11 15:32:55;;;;;;;11.88;8.68;;;;;;;13.27;86.29;100101.41;5102297;27;20386;-55
2021/05/11 15:35:33;;;;;;;13.45;9.30;;;;;;;13.34;86.38;100109.13;5113607;27;20039;-54
2021/05/11 15:38:01;;;;;;;12.45;10.07;;;;;;;13.59;85.24;100097.13;5102399;27;20082;-54
2021/05/11 15:40:29;;;;;;;16.42;9.57;;;;;;;13.33;85.94;100110.03;5100297;27;20039;-52
2021/05/11 15:42:56;;;;;;;14.75;10.13;;;;;;;13.26;86.95;100106.69;5085676;27;20039;-53
2021/05/11 15:45:24;;;;;;;15.02;10.15;;;;;;;13.22;87.40;100107.66;5087834;27;20031;-53